Time;durP1;ratioP1;P1;durP2;ratioP2;P2;SDS_P1;SDS_P2;PMS_P1;PMS_P2;Temp;Humidity;BMP_temperature;BMP_pressure;BME280_temperature;BME280_humidity;BME280_pressure;Samples;Min_cycle;Max_cycle;Signal;HPM_P1;HPM_P2
2022/01/30 00:00:18;;;;;;;45.70;5.80;;;;;;;6.76;45.57;100199.19;5073030;28;20132;-72
2022/01/30 00:02:45;;;;;;;33.40;5.05;;;;;;;7.14;45.32;100214.94;5054247;28;20053;-72
2022/01/30 00:05:11;;;;;;;33.83;4.53;;;;;;;7.32;44.75;100206.13;5011306;28;20056;-71
2022/01/30 00:07:38;;;;;;;41.30;5.60;;;;;;;6.77;45.75;100188.34;5012012;28;20466;-72
2022/01/30 00:10:07;;;;;;;36.90;5.05;;;;;;;6.91;45.53;100182.56;5013142;28;20128;-72
2022/01/30 00:12:44;;;;;;;32.45;5.13;;;;;;;6.67;45.27;100171.59;5012342;28;20125;-72
2022/01/30 00:15:11;;;;;;;39.65;4.95;;;;;;;6.93;45.02;100174.38;5013329;28;20073;-72
2022/01/30 00:17:44;;;;;;;34.45;5.45;;;;;;;6.77;45.25;100184.84;5013317;28;20517;-72
2022/01/30 00:20:18;;;;;;;44.65;6.28;;;;;;;6.52;45.36;100181.91;5011699;28;20077;-71
2022/01/30 00:23:07;;;;;;;34.70;5.13;;;;;;;7.60;43.98;100206.88;5012583;28;20069;-71
2022/01/30 00:25:45;;;;;;;38.03;5.65;;;;;;;7.21;44.78;100182.34;5012056;28;20188;-71
2022/01/30 00:28:14;;;;;;;28.08;4.95;;;;;;;6.67;44.99;100190.25;5008994;28;20410;-71
2022/01/30 00:30:40;;;;;;;36.83;5.13;;;;;;;7.24;44.50;100192.72;5012291;28;20486;-71
2022/01/30 00:33:07;;;;;;;44.92;5.18;;;;;;;7.10;44.17;100194.91;5012640;28;20052;-71
2022/01/30 00:35:35;;;;;;;33.33;6.57;;;;;;;6.88;44.50;100187.34;5021480;28;20503;-70
2022/01/30 00:38:04;;;;;;;42.63;5.03;;;;;;;6.96;44.49;100184.75;5018704;28;20049;-71
2022/01/30 00:40:33;;;;;;;36.63;5.43;;;;;;;7.14;44.07;100184.78;5031733;28;20128;-70
2022/01/30 00:43:00;;;;;;;29.08;4.85;;;;;;;7.07;44.93;100202.38;5018191;28;20517;-71
2022/01/30 00:45:27;;;;;;;27.48;4.28;;;;;;;7.30;44.57;100192.94;5012579;28;20052;-71
2022/01/30 00:47:54;;;;;;;26.23;4.25;;;;;;;6.97;44.90;100205.09;5011309;28;20478;-71
2022/01/30 00:50:21;;;;;;;28.30;4.85;;;;;;;7.22;44.90;100197.34;5015414;28;20137;-71
2022/01/30 00:52:53;;;;;;;29.38;4.05;;;;;;;6.89;45.65;100181.00;5016926;28;20565;-70
2022/01/30 00:55:20;;;;;;;;;;;;;;;7.28;45.13;100196.75;5013075;28;20107;-71
2022/01/30 00:57:46;;;;;;;28.67;4.28;;;;;;;6.70;46.73;100158.81;5011453;28;19956;-71
2022/01/30 01:00:14;;;;;;;27.83;5.30;;;;;;;6.81;46.36;100159.59;5011848;28;20513;-71
2022/01/30 01:02:41;;;;;;;33.42;4.82;;;;;;;6.39;47.34;100144.09;5010912;28;20045;-71
2022/01/30 01:05:08;;;;;;;28.98;4.47;;;;;;;6.77;46.21;100153.69;5011264;28;20045;-71
2022/01/30 01:07:36;;;;;;;29.95;5.07;;;;;;;7.03;45.68;100163.66;5010648;28;20501;-71
2022/01/30 01:12:50;;;;;;;27.20;3.97;;;;;;;6.80;45.25;100136.56;5011930;28;20076;-71
2022/01/30 01:23:40;;;;;;;29.45;5.50;;;;;;;7.10;43.80;100117.56;5011025;28;20045;-70
2022/01/30 01:26:07;;;;;;;31.27;5.15;;;;;;;6.83;43.99;100137.13;5010719;28;20450;-71
2022/01/30 01:28:33;;;;;;;29.30;4.72;;;;;;;6.88;44.00;100145.50;5010702;28;20052;-71
2022/01/30 01:31:00;;;;;;;38.85;4.97;;;;;;;6.96;43.45;100150.09;5010721;28;20483;-72
2022/01/30 01:33:36;;;;;;;31.88;5.53;;;;;;;6.86;44.03;100133.31;5010966;28;20050;-72
2022/01/30 01:36:03;;;;;;;32.75;5.15;;;;;;;7.07;43.06;100130.34;5010777;28;20065;-71
2022/01/30 01:38:29;;;;;;;28.13;5.10;;;;;;;6.86;43.52;100126.16;5011429;28;20153;-72
2022/01/30 01:40:56;;;;;;;27.40;4.10;;;;;;;7.05;43.21;100119.00;5011366;28;20120;-71
2022/01/30 01:43:24;;;;;;;32.05;5.43;;;;;;;7.10;43.33;100128.22;5010268;28;20061;-71
2022/01/30 01:45:53;;;;;;;20.08;3.70;;;;;;;6.94;43.57;100125.38;5010564;28;20077;-71
2022/01/30 01:48:19;;;;;;;32.05;6.03;;;;;;;7.34;42.83;100118.78;5016695;28;20069;-71
2022/01/30 01:51:05;;;;;;;33.83;4.97;;;;;;;6.92;43.34;100130.88;5017553;28;20085;-71
2022/01/30 01:53:32;;;;;;;39.75;5.55;;;;;;;7.28;43.17;100156.72;5017731;28;20061;-70
2022/01/30 01:55:59;;;;;;;28.80;4.53;;;;;;;7.48;42.34;100130.72;5018843;28;20065;-71
2022/01/30 01:58:27;;;;;;;26.98;4.10;;;;;;;7.60;42.04;100142.81;5017954;28;20042;-71
2022/01/30 02:00:54;;;;;;;26.23;4.97;;;;;;;7.20;43.23;100125.50;5017264;28;20401;-71
2022/01/30 02:03:22;;;;;;;33.85;4.78;;;;;;;6.99;43.42;100115.13;5017335;28;20045;-71
2022/01/30 02:10:05;;;;;;;21.88;3.95;;;;;;;6.81;43.50;100122.28;4999249;28;20056;-71
2022/01/30 02:12:45;;;;;;;28.13;5.43;;;;;;;6.61;44.01;100114.38;5021044;28;20140;-71
2022/01/30 02:26:00;;;;;;;27.08;4.40;;;;;;;7.64;42.10;100165.56;5018475;28;20478;-71
2022/01/30 02:28:29;;;;;;;31.35;4.80;;;;;;;7.28;43.17;100154.91;5018035;28;20045;-71
2022/01/30 02:31:01;;;;;;;29.17;4.15;;;;;;;7.30;42.73;100149.44;5015385;28;20038;-71
2022/01/30 02:33:28;;;;;;;27.70;5.03;;;;;;;7.34;42.88;100158.78;5016936;28;20096;-71
2022/01/30 02:35:55;;;;;;;26.60;3.88;;;;;;;6.98;43.67;100149.94;5016778;28;20073;-72
2022/01/30 02:38:23;;;;;;;26.25;3.97;;;;;;;7.06;43.34;100142.03;5017892;28;20505;-70
2022/01/30 02:40:53;;;;;;;32.83;5.10;;;;;;;7.05;43.42;100140.31;5017016;28;20081;-71
2022/01/30 02:43:24;;;;;;;26.25;4.80;;;;;;;7.18;43.36;100151.47;5016373;28;20077;-71
2022/01/30 02:46:05;;;;;;;26.42;4.60;;;;;;;7.29;42.90;100137.06;5017418;28;20057;-71
2022/01/30 02:48:48;;;;;;;31.75;5.45;;;;;;;7.28;42.87;100122.88;5016684;28;20049;-70
2022/01/30 02:51:17;;;;;;;27.58;5.70;;;;;;;7.00;43.63;100124.78;5019043;28;20074;-71
2022/01/30 02:53:53;;;;;;;31.83;4.55;;;;;;;6.93;43.91;100119.22;5033146;28;20505;-71
2022/01/30 02:56:20;;;;;;;29.25;5.63;;;;;;;7.15;43.51;100141.09;5016509;28;20066;-71
2022/01/30 02:58:47;;;;;;;35.65;5.65;;;;;;;7.35;43.52;100139.13;5014302;28;20065;-71
2022/01/30 03:01:14;;;;;;;26.25;4.50;;;;;;;7.27;43.47;100145.22;5013449;28;20568;-71
2022/01/30 03:03:40;;;;;;;28.77;4.78;;;;;;;7.35;43.37;100131.94;5008778;28;20048;-71
2022/01/30 03:06:07;;;;;;;28.52;4.07;;;;;;;7.11;43.37;100135.22;5013968;28;20042;-71
2022/01/30 03:08:34;;;;;;;42.65;5.50;;;;;;;7.02;43.52;100122.00;5013679;28;20074;-72
2022/01/30 03:11:01;;;;;;;25.92;4.32;;;;;;;6.78;44.32;100128.75;5013035;28;20541;-71
2022/01/30 03:13:27;;;;;;;26.75;4.22;;;;;;;7.65;44.02;100148.53;5013759;28;20073;-71
2022/01/30 03:15:55;;;;;;;35.95;5.57;;;;;;;7.42;44.47;100145.50;5012965;28;20073;-71
2022/01/30 03:18:22;;;;;;;29.00;4.40;;;;;;;7.16;45.44;100170.31;5013217;28;20403;-71
2022/01/30 03:20:49;;;;;;;27.73;5.30;;;;;;;6.92;47.26;100164.72;5013447;28;20523;-71
2022/01/30 03:23:15;;;;;;;36.58;5.15;;;;;;;6.84;47.61;100188.59;5014096;28;20050;-71
2022/01/30 03:25:42;;;;;;;32.60;5.97;;;;;;;6.70;48.17;100177.47;5012767;28;20070;-71
2022/01/30 03:28:08;;;;;;;35.90;5.47;;;;;;;6.72;47.60;100174.66;5011732;28;20046;-71
2022/01/30 03:30:36;;;;;;;26.30;4.28;;;;;;;7.02;46.78;100170.81;5012767;28;20498;-71
2022/01/30 03:33:02;;;;;;;41.97;5.80;;;;;;;7.02;45.68;100173.50;5012852;28;20077;-70
2022/01/30 03:35:29;;;;;;;28.42;5.05;;;;;;;6.80;46.15;100148.06;5013058;28;20133;-71
2022/01/30 03:37:56;;;;;;;41.25;6.47;;;;;;;6.54;46.27;100139.97;5013067;28;20137;-71
2022/01/30 03:40:22;;;;;;;23.58;4.13;;;;;;;7.32;44.48;100142.91;5009247;28;20133;-71
2022/01/30 03:42:49;;;;;;;35.83;5.88;;;;;;;6.67;45.60;100121.78;5012812;28;20085;-71
2022/01/30 03:45:16;;;;;;;37.97;6.75;;;;;;;6.91;45.08;100136.34;5012553;28;20077;-71
2022/01/30 03:47:42;;;;;;;29.13;5.20;;;;;;;6.60;45.73;100122.50;5013123;28;20132;-71
2022/01/30 03:50:09;;;;;;;33.97;4.75;;;;;;;6.76;45.45;100116.53;5012577;28;20097;-71
2022/01/30 03:52:35;;;;;;;32.33;5.55;;;;;;;6.36;46.53;100133.75;5009974;28;20081;-71
2022/01/30 03:55:02;;;;;;;35.53;6.30;;;;;;;6.83;45.43;100121.13;5013490;28;20045;-71
2022/01/30 03:57:29;;;;;;;33.53;5.18;;;;;;;6.63;46.02;100127.56;5014121;28;20502;-71
2022/01/30 03:59:55;;;;;;;35.78;5.15;;;;;;;7.23;44.67;100127.03;5013184;28;20054;-71
2022/01/30 04:02:21;;;;;;;38.30;5.18;;;;;;;7.22;44.74;100138.66;5013870;28;20065;-71
2022/01/30 04:04:48;;;;;;;40.33;5.68;;;;;;;7.24;45.41;100145.53;5012637;28;20137;-71
2022/01/30 04:07:16;;;;;;;34.97;5.28;;;;;;;7.02;46.59;100144.16;5013971;28;20414;-71
2022/01/30 04:09:42;;;;;;;36.10;5.15;;;;;;;6.56;48.38;100147.78;5012813;28;20045;-71
2022/01/30 04:12:10;;;;;;;34.03;4.10;;;;;;;6.56;49.47;100158.44;5011879;28;20049;-71
2022/01/30 04:14:36;;;;;;;35.13;5.82;;;;;;;6.27;50.81;100166.59;5007973;28;20494;-71
2022/01/30 04:17:05;;;;;;;25.40;5.03;;;;;;;6.67;50.69;100163.59;5012499;28;20077;-71
2022/01/30 04:19:32;;;;;;;29.33;4.70;;;;;;;6.36;50.85;100185.19;5012652;28;20137;-71
2022/01/30 04:21:58;;;;;;;31.55;4.43;;;;;;;6.22;50.81;100175.00;5011119;28;20553;-71
2022/01/30 04:24:25;;;;;;;22.30;4.50;;;;;;;6.61;49.79;100166.84;5011522;28;20061;-71
2022/01/30 04:26:51;;;;;;;31.63;4.70;;;;;;;6.65;49.00;100176.22;5006491;28;20073;-70
2022/01/30 04:29:18;;;;;;;30.73;4.75;;;;;;;7.00;47.67;100170.13;5012108;28;20136;-71
2022/01/30 04:31:48;;;;;;;27.52;4.40;;;;;;;6.56;48.34;100171.78;5012041;28;20058;-70
2022/01/30 04:34:15;;;;;;;21.95;4.40;;;;;;;6.47;48.45;100182.34;5011679;28;20052;-71
2022/01/30 04:36:56;;;;;;;32.63;4.80;;;;;;;6.33;48.20;100166.00;5012315;28;20134;-71
2022/01/30 04:51:58;;;;;;;22.42;4.10;;;;;;;6.41;47.76;100163.44;4975113;28;20128;-71
2022/01/30 04:54:13;;;;;;;24.58;4.50;;;;;;;6.66;47.12;100165.41;5011049;28;20073;-70
2022/01/30 04:56:53;;;;;;;26.08;3.45;;;;;;;6.40;47.71;100162.59;5011192;28;20072;-70
2022/01/30 05:05:21;;;;;;;23.60;4.18;;;;;;;6.44;48.18;100163.16;4988306;28;20060;-70
2022/01/30 05:07:44;;;;;;;29.60;4.35;;;;;;;6.28;48.97;100170.91;5010824;28;20045;-71
2022/01/30 05:10:10;;;;;;;31.63;4.60;;;;;;;5.99;49.39;100187.78;5011433;28;20072;-70
2022/01/30 05:12:46;;;;;;;25.05;4.55;;;;;;;6.37;48.35;100202.03;5011280;28;20128;-70
2022/01/30 05:15:13;;;;;;;22.73;4.57;;;;;;;6.60;47.97;100199.81;5011476;28;20084;-70
2022/01/30 05:17:40;;;;;;;25.00;4.57;;;;;;;6.10;48.11;100214.25;5010397;28;20054;-71
2022/01/30 05:20:07;;;;;;;23.17;4.22;;;;;;;5.95;47.72;100197.06;5010588;28;20037;-70
2022/01/30 05:22:34;;;;;;;27.80;4.95;;;;;;;5.92;47.65;100210.66;5010962;28;20069;-70
2022/01/30 05:25:01;;;;;;;36.40;4.13;;;;;;;6.19;46.81;100213.41;5010996;28;20041;-71
2022/01/30 05:27:27;;;;;;;26.40;4.32;;;;;;;6.03;46.67;100213.16;5011160;28;20045;-70
2022/01/30 05:29:54;;;;;;;20.50;3.60;;;;;;;6.47;45.68;100206.34;5011194;28;20045;-71
2022/01/30 05:32:21;;;;;;;30.58;4.30;;;;;;;6.04;46.61;100198.84;5011771;28;20050;-70
2022/01/30 05:34:47;;;;;;;28.33;4.80;;;;;;;6.17;45.99;100199.38;5010366;28;20077;-70
2022/01/30 05:37:17;;;;;;;30.10;4.00;;;;;;;6.43;45.29;100204.13;5010863;28;20121;-71
2022/01/30 05:39:44;;;;;;;32.80;4.20;;;;;;;5.94;46.27;100219.31;5012562;28;20045;-71
2022/01/30 05:42:12;;;;;;;34.10;4.85;;;;;;;6.27;45.67;100231.34;5010705;28;20072;-71
2022/01/30 05:44:51;;;;;;;31.33;4.65;;;;;;;6.38;45.58;100235.66;5011034;28;20504;-71
2022/01/30 05:47:26;;;;;;;29.65;5.00;;;;;;;6.27;45.58;100257.16;5010568;28;20069;-71
2022/01/30 05:49:53;;;;;;;28.20;4.95;;;;;;;6.11;46.30;100250.53;5010905;28;20105;-71
2022/01/30 05:52:21;;;;;;;31.55;4.97;;;;;;;6.11;46.46;100266.53;5010633;28;20049;-70
2022/01/30 05:54:48;;;;;;;33.42;5.72;;;;;;;6.36;45.85;100272.28;5011005;28;20050;-71
2022/01/30 05:57:14;;;;;;;29.40;5.03;;;;;;;6.31;46.36;100255.88;5010313;28;20046;-70
2022/01/30 05:59:41;;;;;;;30.75;5.40;;;;;;;6.00;46.59;100234.72;5011281;28;20053;-71
2022/01/30 06:02:08;;;;;;;35.10;5.20;;;;;;;6.12;46.42;100243.44;5009107;28;20072;-71
2022/01/30 06:04:34;;;;;;;41.20;5.65;;;;;;;6.21;45.68;100231.88;5036095;28;20065;-70
2022/01/30 06:07:01;;;;;;;43.30;6.18;;;;;;;6.24;45.75;100223.63;5031099;28;20080;-71
2022/01/30 06:09:27;;;;;;;36.33;5.55;;;;;;;6.19;45.47;100207.25;5030696;28;20069;-71
2022/01/30 06:11:54;;;;;;;33.22;5.57;;;;;;;6.03;46.11;100217.63;5026414;28;20108;-70
2022/01/30 06:14:22;;;;;;;40.10;5.25;;;;;;;6.00;45.87;100224.09;5030724;28;20128;-70
2022/01/30 06:16:53;;;;;;;38.13;6.72;;;;;;;5.90;45.99;100245.38;5030362;28;20557;-70
2022/01/30 06:19:22;;;;;;;36.30;5.68;;;;;;;6.30;45.10;100224.91;5030677;28;20048;-70
2022/01/30 06:21:49;;;;;;;41.17;5.50;;;;;;;6.31;45.28;100223.91;5035796;28;20045;-70
2022/01/30 06:24:15;;;;;;;41.15;5.15;;;;;;;6.17;44.98;100219.84;5036456;28;20050;-70
2022/01/30 06:26:42;;;;;;;35.17;5.63;;;;;;;6.35;44.56;100212.81;5030251;28;20132;-71
2022/01/30 06:29:09;;;;;;;40.60;5.50;;;;;;;6.24;44.98;100220.94;5030545;28;20538;-71
2022/01/30 06:31:35;;;;;;;37.22;5.63;;;;;;;5.83;45.45;100207.00;5029143;28;20069;-71
2022/01/30 06:34:02;;;;;;;33.17;5.00;;;;;;;6.35;44.79;100238.63;5027118;28;20053;-71
2022/01/30 06:36:28;;;;;;;29.27;5.00;;;;;;;6.37;45.20;100236.66;5034103;28;20405;-71
2022/01/30 06:38:55;;;;;;;35.33;6.22;;;;;;;6.44;45.01;100248.41;5034246;28;20069;-71
2022/01/30 06:41:21;;;;;;;33.78;4.90;;;;;;;5.71;46.26;100234.78;5031919;28;20121;-71
2022/01/30 06:43:48;;;;;;;43.67;5.97;;;;;;;6.15;45.60;100232.50;5033017;28;20137;-71
2022/01/30 06:46:15;;;;;;;36.72;5.53;;;;;;;6.10;45.24;100224.91;5033372;28;20482;-71
2022/01/30 06:48:42;;;;;;;36.17;5.68;;;;;;;6.22;45.16;100212.28;5033411;28;20508;-71
2022/01/30 06:51:08;;;;;;;34.60;6.50;;;;;;;6.32;44.71;100229.13;5033478;28;20064;-70
2022/01/30 06:53:35;;;;;;;30.05;5.78;;;;;;;6.16;44.69;100218.19;5035207;28;20076;-70
2022/01/30 06:56:02;;;;;;;29.77;6.40;;;;;;;6.21;44.46;100207.91;5033695;28;20065;-70
2022/01/30 06:58:28;;;;;;;30.75;5.35;;;;;;;6.30;44.00;100219.56;5033804;28;20116;-70
2022/01/30 07:00:55;;;;;;;34.03;5.50;;;;;;;6.47;43.30;100245.47;5032987;28;20073;-70
2022/01/30 07:03:21;;;;;;;33.05;6.05;;;;;;;6.56;43.08;100231.25;5026149;28;20056;-71
2022/01/30 07:05:48;;;;;;;33.10;6.40;;;;;;;6.29;43.51;100257.84;5013587;28;20042;-71
2022/01/30 07:08:15;;;;;;;38.72;5.13;;;;;;;6.48;42.77;100233.81;5014519;28;20056;-71
2022/01/30 07:10:42;;;;;;;38.05;5.70;;;;;;;6.36;42.70;100225.16;5014699;28;20125;-70
2022/01/30 07:13:11;;;;;;;29.90;4.95;;;;;;;6.52;42.72;100245.00;5015035;28;20475;-71
2022/01/30 07:15:37;;;;;;;34.25;4.72;;;;;;;6.71;42.04;100256.44;5015284;28;20081;-71
2022/01/30 07:18:03;;;;;;;32.63;5.25;;;;;;;6.44;42.22;100235.09;5014654;28;20046;-71
2022/01/30 07:20:30;;;;;;;31.95;5.10;;;;;;;6.47;42.05;100280.94;5013925;28;20125;-71
2022/01/30 07:22:56;;;;;;;37.20;5.95;;;;;;;6.56;41.76;100267.72;5013772;28;20073;-71
2022/01/30 07:25:23;;;;;;;36.55;5.63;;;;;;;6.94;41.52;100280.94;5013775;28;20073;-71
2022/01/30 07:27:49;;;;;;;41.08;5.97;;;;;;;6.17;42.21;100271.28;5013363;28;20050;-70
2022/01/30 07:30:16;;;;;;;42.78;5.60;;;;;;;6.44;42.11;100248.41;5013390;28;20080;-71
2022/01/30 07:32:42;;;;;;;34.22;5.32;;;;;;;6.35;42.17;100263.44;5016156;28;20073;-70
2022/01/30 07:35:09;;;;;;;34.38;5.25;;;;;;;6.82;41.65;100281.25;5017676;28;20042;-70
2022/01/30 07:37:36;;;;;;;40.63;5.78;;;;;;;6.84;41.24;100308.59;5014032;28;20065;-71
2022/01/30 07:40:03;;;;;;;35.70;5.38;;;;;;;6.88;41.65;100310.84;5009769;28;20088;-70
2022/01/30 07:42:30;;;;;;;32.58;4.85;;;;;;;6.46;41.81;100324.56;5013160;28;20123;-70
2022/01/30 07:44:56;;;;;;;50.03;5.95;;;;;;;6.59;41.97;100320.75;5012665;28;20387;-70
2022/01/30 07:47:23;;;;;;;31.98;5.75;;;;;;;6.69;41.86;100334.88;5012718;28;20134;-70
2022/01/30 07:49:52;;;;;;;26.88;4.32;;;;;;;6.78;41.63;100357.19;5012640;28;20042;-70
2022/01/30 07:52:20;;;;;;;42.20;5.65;;;;;;;6.74;41.52;100339.78;5012436;28;20056;-70
2022/01/30 07:54:46;;;;;;;39.10;5.95;;;;;;;6.80;41.49;100389.84;5014026;28;20561;-71
2022/01/30 07:57:14;;;;;;;35.53;6.35;;;;;;;6.85;42.25;100374.28;5012445;28;20161;-71
2022/01/30 07:59:41;;;;;;;29.63;4.55;;;;;;;6.70;41.94;100382.75;5013575;28;20141;-71
2022/01/30 08:02:08;;;;;;;36.67;6.75;;;;;;;7.08;41.24;100377.41;5014744;28;20407;-71
2022/01/30 08:04:36;;;;;;;44.65;6.65;;;;;;;6.68;42.04;100374.03;5050596;28;20481;-70
2022/01/30 08:07:03;;;;;;;38.05;5.18;;;;;;;6.89;41.78;100381.00;5053248;28;20143;-71
2022/01/30 08:09:35;;;;;;;35.78;5.68;;;;;;;7.18;41.25;100418.25;5072087;28;20395;-71
2022/01/30 08:12:01;;;;;;;33.85;6.05;;;;;;;6.83;41.92;100422.41;5073544;28;20493;-71
2022/01/30 08:14:28;;;;;;;51.55;6.50;;;;;;;6.74;42.23;100412.63;5072131;28;20048;-70
2022/01/30 08:16:54;;;;;;;37.95;5.85;;;;;;;7.31;41.01;100423.25;5073491;28;20443;-71
2022/01/30 08:19:23;;;;;;;37.38;6.10;;;;;;;7.26;40.83;100425.53;5072186;28;20045;-71
2022/01/30 08:21:52;;;;;;;34.67;5.68;;;;;;;7.01;41.89;100443.84;5071058;28;20410;-71
2022/01/30 08:24:19;;;;;;;41.10;4.85;;;;;;;7.17;41.49;100446.75;5072110;28;20079;-71
2022/01/30 08:26:46;;;;;;;35.90;5.13;;;;;;;7.24;41.56;100457.69;5072073;28;20040;-71
2022/01/30 08:29:12;;;;;;;31.40;5.13;;;;;;;6.91;41.65;100459.03;5071973;28;20055;-70
2022/01/30 08:31:39;;;;;;;41.05;6.05;;;;;;;7.45;40.83;100473.50;5070227;28;20522;-71
2022/01/30 08:34:05;;;;;;;36.75;5.38;;;;;;;7.26;41.07;100470.91;5072478;28;20451;-71
2022/01/30 08:36:32;;;;;;;31.85;5.53;;;;;;;7.34;41.28;100476.34;5071683;28;20047;-71
2022/01/30 08:38:58;;;;;;;44.00;6.50;;;;;;;7.24;41.54;100467.53;5070817;28;20068;-71
2022/01/30 08:41:25;;;;;;;36.45;6.22;;;;;;;7.09;41.86;100497.34;5063389;28;20075;-71
2022/01/30 08:43:52;;;;;;;43.75;6.18;;;;;;;7.36;41.14;100495.72;5072038;28;20079;-72
2022/01/30 08:46:20;;;;;;;34.55;5.85;;;;;;;7.29;41.00;100489.28;5055361;28;20055;-71
2022/01/30 08:48:47;;;;;;;37.78;5.65;;;;;;;7.35;41.08;100499.38;5051935;28;20052;-71
2022/01/30 08:51:13;;;;;;;35.42;5.65;;;;;;;7.50;40.76;100499.75;5051052;28;20508;-71
2022/01/30 08:53:41;;;;;;;33.63;5.95;;;;;;;7.19;41.29;100516.84;5051232;28;20075;-71
2022/01/30 08:56:07;;;;;;;23.95;5.72;;;;;;;7.09;41.47;100516.00;5050901;28;20457;-71
2022/01/30 08:58:34;;;;;;;51.58;7.35;;;;;;;7.59;40.60;100515.72;5051231;28;20041;-71
2022/01/30 09:01:01;;;;;;;42.05;6.15;;;;;;;7.34;41.19;100524.38;5051987;28;20040;-71
2022/01/30 09:03:27;;;;;;;37.95;6.55;;;;;;;7.25;41.10;100515.41;5050803;28;20076;-70
2022/01/30 09:05:54;;;;;;;36.80;5.32;;;;;;;7.26;41.35;100510.94;5034324;28;20520;-69
2022/01/30 09:08:20;;;;;;;28.67;5.28;;;;;;;7.25;41.18;100523.41;5044452;28;20072;-70
2022/01/30 09:10:48;;;;;;;33.33;5.20;;;;;;;7.08;41.61;100511.63;5051067;28;20148;-70
2022/01/30 09:13:15;;;;;;;41.05;5.97;;;;;;;7.28;41.34;100508.94;5054175;28;20071;-70
2022/01/30 09:15:42;;;;;;;38.85;6.05;;;;;;;6.94;41.66;100539.63;5056308;28;20072;-69
2022/01/30 09:18:11;;;;;;;40.78;5.90;;;;;;;7.63;40.77;100533.13;5072103;28;20044;-71
2022/01/30 09:20:40;;;;;;;32.05;4.82;;;;;;;7.50;40.91;100529.97;5072471;28;20124;-71
2022/01/30 09:23:08;;;;;;;39.28;5.95;;;;;;;7.26;41.16;100548.28;5071585;28;20044;-71
2022/01/30 09:25:34;;;;;;;36.58;5.90;;;;;;;7.33;40.96;100541.38;5053282;28;20074;-70
2022/01/30 09:28:02;;;;;;;35.00;5.93;;;;;;;7.35;41.03;100552.75;5071399;28;20476;-71
2022/01/30 09:30:29;;;;;;;38.67;6.55;;;;;;;7.44;41.01;100551.91;5071092;28;20044;-70
2022/01/30 09:32:56;;;;;;;36.28;6.28;;;;;;;7.45;40.75;100553.56;5070132;28;20052;-72
2022/01/30 09:35:23;;;;;;;38.22;5.38;;;;;;;7.69;40.20;100549.56;5069892;28;20072;-71
2022/01/30 09:37:49;;;;;;;37.17;5.55;;;;;;;7.29;40.52;100551.50;5070836;28;20091;-71
2022/01/30 09:40:17;;;;;;;39.78;6.70;;;;;;;7.59;40.32;100550.44;5070441;28;20044;-70
2022/01/30 09:42:45;;;;;;;30.77;5.60;;;;;;;7.46;40.08;100573.94;5071070;28;20542;-71
2022/01/30 09:45:16;;;;;;;26.77;5.00;;;;;;;7.98;38.95;100574.38;5071806;28;20107;-71
2022/01/30 09:47:45;;;;;;;32.97;5.40;;;;;;;7.45;39.51;100580.25;5070323;28;20049;-71
2022/01/30 09:50:12;;;;;;;41.42;5.63;;;;;;;7.77;39.41;100584.38;5070982;28;20044;-69
2022/01/30 09:52:38;;;;;;;44.88;6.50;;;;;;;8.02;38.96;100589.13;5071244;28;20489;-71
2022/01/30 09:55:08;;;;;;;33.35;6.05;;;;;;;7.62;39.80;100595.53;5070967;28;20044;-71
2022/01/30 09:57:36;;;;;;;36.25;7.18;;;;;;;7.75;38.97;100610.41;5060726;28;20089;-71
2022/01/30 10:00:04;;;;;;;36.20;5.70;;;;;;;7.60;39.02;100588.66;5070110;28;20166;-71
2022/01/30 10:02:31;;;;;;;35.60;6.10;;;;;;;7.78;39.07;100615.47;5070456;28;20122;-70
2022/01/30 10:04:58;;;;;;;34.67;6.88;;;;;;;7.93;38.60;100616.72;5071519;28;20045;-70
2022/01/30 10:07:42;;;;;;;39.45;6.40;;;;;;;7.87;38.52;100607.44;5065732;28;20041;-74
2022/01/30 10:10:13;;;;;;;38.95;5.65;;;;;;;7.54;39.36;100640.81;5074207;28;20067;-73
2022/01/30 10:12:59;;;;;;;37.70;6.15;;;;;;;8.13;38.71;100631.69;5075814;28;20048;-71
2022/01/30 10:15:26;;;;;;;34.60;6.93;;;;;;;8.39;37.90;100641.69;5075294;28;20158;-72
2022/01/30 10:17:54;;;;;;;32.67;6.00;;;;;;;7.34;40.38;100639.97;5074594;28;20056;-73
2022/01/30 10:20:38;;;;;;;46.05;6.50;;;;;;;7.61;39.72;100638.41;5074714;28;20042;-72
2022/01/30 10:23:09;;;;;;;31.45;5.40;;;;;;;7.53;40.25;100641.78;5075638;28;20070;-72
2022/01/30 10:25:48;;;;;;;45.92;7.28;;;;;;;7.75;39.63;100666.50;5074523;28;20074;-73
2022/01/30 10:28:31;;;;;;;39.53;6.13;;;;;;;7.76;40.05;100673.50;5074408;28;20071;-71
2022/01/30 10:31:02;;;;;;;46.80;6.93;;;;;;;7.41;40.65;100674.94;5075591;28;20443;-71
2022/01/30 10:33:39;;;;;;;33.67;7.20;;;;;;;7.96;40.02;100677.03;5065047;28;20047;-71
2022/01/30 10:36:09;;;;;;;40.70;6.22;;;;;;;7.70;40.14;100674.06;5047900;28;20063;-72
2022/01/30 10:38:46;;;;;;;41.72;6.43;;;;;;;7.94;40.05;100682.50;5054165;28;20048;-72
2022/01/30 10:44:01;;;;;;;41.03;6.78;;;;;;;7.81;40.06;100703.28;5059242;28;20080;-72
2022/01/30 10:46:38;;;;;;;43.45;7.25;;;;;;;8.19;39.51;100706.91;5010226;28;20056;-72
2022/01/30 10:49:19;;;;;;;42.40;7.05;;;;;;;8.09;39.93;100718.47;5067181;28;20512;-72
2022/01/30 10:51:53;;;;;;;48.88;7.38;;;;;;;8.45;39.12;100705.28;5068850;28;20521;-72
2022/01/30 10:54:20;;;;;;;50.20;7.35;;;;;;;8.51;38.96;100720.75;5074908;28;20123;-70
2022/01/30 10:56:47;;;;;;;44.53;6.68;;;;;;;8.82;38.84;100720.47;5075224;28;20110;-71
2022/01/30 10:59:16;;;;;;;44.17;7.35;;;;;;;7.96;40.24;100722.44;5075241;28;20129;-72
2022/01/30 11:01:47;;;;;;;41.85;7.15;;;;;;;7.92;40.34;100735.25;5076928;28;20064;-71
2022/01/30 11:04:27;;;;;;;49.65;7.72;;;;;;;7.95;40.41;100721.59;5074048;28;20047;-70
2022/01/30 11:06:56;;;;;;;41.90;7.82;;;;;;;7.88;40.18;100725.81;5074521;28;20074;-70
2022/01/30 11:09:37;;;;;;;45.42;7.38;;;;;;;8.33;39.77;100731.34;5074537;28;20120;-71
2022/01/30 11:12:08;;;;;;;;;;;;;;;8.04;39.89;100730.56;5068588;28;20057;-71
2022/01/30 11:14:51;;;;;;;50.97;7.35;;;;;;;8.03;40.59;100729.75;5054571;28;19963;-71
2022/01/30 11:17:20;;;;;;;54.42;8.35;;;;;;;8.10;40.42;100751.38;5053999;28;20069;-72
2022/01/30 11:19:52;;;;;;;52.45;9.27;;;;;;;8.41;39.57;100753.84;5055865;28;20503;-71
2022/01/30 11:22:19;;;;;;;;;;;;;;;8.36;39.13;100765.81;5053615;28;20045;-71
2022/01/30 11:24:54;;;;;;;40.30;7.25;;;;;;;7.77;40.35;100744.63;5053119;28;20011;-72
2022/01/30 11:27:22;;;;;;;47.72;7.00;;;;;;;8.22;39.19;100784.97;5056432;28;20128;-70
2022/01/30 11:29:50;;;;;;;44.63;7.82;;;;;;;8.88;38.25;100773.34;5052954;28;20577;-72
2022/01/30 11:32:19;;;;;;;43.92;6.82;;;;;;;8.20;38.79;100776.25;5053361;28;20128;-71
2022/01/30 11:34:50;;;;;;;54.08;8.63;;;;;;;7.65;39.51;100766.13;5053460;28;20544;-71
2022/01/30 11:37:26;;;;;;;48.40;7.72;;;;;;;7.49;39.36;100781.84;5053238;28;20120;-71
2022/01/30 11:39:53;;;;;;;48.72;6.32;;;;;;;7.83;38.91;100771.63;5056784;28;20453;-71
2022/01/30 11:42:25;;;;;;;58.00;7.57;;;;;;;8.19;38.09;100792.41;5062217;28;20438;-71
2022/01/30 11:45:04;;;;;;;53.30;9.00;;;;;;;8.64;37.80;100786.41;5052122;28;20053;-71
2022/01/30 11:47:58;;;;;;;53.35;8.60;;;;;;;7.98;38.57;100782.72;5052620;28;20132;-72
2022/01/30 11:50:28;;;;;;;58.08;9.50;;;;;;;7.87;38.05;100786.41;5053439;28;20489;-72
2022/01/30 11:53:24;;;;;;;51.63;8.32;;;;;;;8.21;37.76;100801.16;5053091;28;20052;-71
2022/01/30 11:56:02;;;;;;;52.42;9.73;;;;;;;7.51;38.63;100795.09;5067939;28;20123;-71
2022/01/30 11:58:54;;;;;;;49.67;10.35;;;;;;;8.08;37.21;100807.63;5072328;28;20127;-71
2022/01/30 12:01:24;;;;;;;51.30;7.45;;;;;;;7.84;37.69;100801.88;5072365;28;20726;-73
2022/01/30 12:04:03;;;;;;;58.15;9.32;;;;;;;8.37;36.42;100807.59;5072243;28;20378;-73
2022/01/30 12:06:32;;;;;;;51.45;7.28;;;;;;;8.43;36.55;100811.50;5072555;28;20060;-73
2022/01/30 12:09:01;;;;;;;65.72;8.90;;;;;;;8.38;36.37;100819.13;5072450;28;20469;-73
2022/01/30 12:11:33;;;;;;;60.33;9.45;;;;;;;8.56;36.15;100796.00;5071332;28;20394;-74
2022/01/30 12:14:01;;;;;;;63.20;8.57;;;;;;;8.31;36.30;100810.84;5062714;28;20497;-74
2022/01/30 12:16:56;;;;;;;45.25;8.80;;;;;;;7.95;36.84;100816.91;5071919;28;20127;-74
2022/01/30 12:19:45;;;;;;;63.15;8.45;;;;;;;8.46;36.49;100821.91;5070597;28;20127;-73
2022/01/30 12:22:20;;;;;;;52.20;9.63;;;;;;;8.54;36.43;100819.38;5058896;28;20064;-73